CFQ2 weather

CLOSED Calgary (Westport) Heliport
Calgary, Alberta, Canada

Public forecast

Using degrees Celsius for public forecast. Weather courtesy of forecast.io.

Closest aviation weather report (METAR) to Calgary (Westport) Heliport

Closest report is Calgary / Springbank Airport, 7.8 nm (14.5 km) WNW. Retrieved 2020/02/24 23:00 UTC (50 minutes ago):

CYBW 242300Z AUTO 22003KT 9SM CLR M04/M10 A3023 RMK SLP303

Closest aviation forecast (TAF) to Calgary (Westport) Heliport

Closest forecast is Calgary / Springbank Airport, 7.8 nm (14.5 km) WNW. Retrieved 2020/02/24 18:00 UTC (6 hours ago):

TAF CYBW 241738Z 2418/2505 34006KT P6SM BKN050 BKN080 TEMPO 2418/2422 2SM -SN BR BKN020 BKN040 FM242200 02010KT P6SM SCT050 BKN080 BKN120 FM250000 VRB03KT P6SM SCT080 TEMPO 2500/2505 BKN080 RMK FCST BASED ON AUTO OBS NXT FCST BY 250000Z